Time;durP1;ratioP1;P1;durP2;ratioP2;P2;SDS_P1;SDS_P2;PMS_P1;PMS_P2;Temp;Humidity;BMP_temperature;BMP_pressure;BME280_temperature;BME280_humidity;BME280_pressure;Samples;Min_cycle;Max_cycle;Signal;HPM_P1;HPM_P2
2022/01/07 00:04:40;;;;;;;1018.07;401.03;;;;;;;-2.81;100.00;101006.17;4998595;58;1145396;-73
2022/01/07 00:09:46;;;;;;;787.40;318.90;;;;;;;-2.76;100.00;100997.91;4976578;59;1149457;-70
2022/01/07 00:14:52;;;;;;;92.63;30.20;;;;;;;-2.63;100.00;100999.86;4969604;59;1147477;-75
2022/01/07 00:19:59;;;;;;;45.70;14.93;;;;;;;-2.65;100.00;101008.94;4926546;59;1143245;-80
2022/01/07 00:25:06;;;;;;;31.83;10.63;;;;;;;-2.73;100.00;101000.86;4911018;59;1143187;-75
2022/01/07 00:30:14;;;;;;;33.17;12.63;;;;;;;-2.81;100.00;101001.44;4910931;59;1143292;-71
2022/01/07 00:35:21;;;;;;;32.93;9.93;;;;;;;-2.90;100.00;101008.88;4911036;59;1143432;-75
2022/01/07 00:40:28;;;;;;;30.47;9.00;;;;;;;-2.98;100.00;101006.86;4910929;60;1141304;-72
2022/01/07 00:45:34;;;;;;;35.07;9.70;;;;;;;-3.04;100.00;101012.96;4910850;59;1141434;-76
2022/01/07 00:50:40;;;;;;;52.13;19.17;;;;;;;-3.10;100.00;101005.31;4910876;60;1141191;-71
2022/01/07 00:55:46;;;;;;;39.43;11.20;;;;;;;-3.11;100.00;101000.16;4910671;59;1143244;-76
2022/01/07 01:00:52;;;;;;;27.60;9.73;;;;;;;-3.13;100.00;100997.58;4910746;60;1142666;-73
2022/01/07 01:05:58;;;;;;;30.77;8.57;;;;;;;-3.13;100.00;100996.72;4910911;60;1141149;-71
2022/01/07 01:11:04;;;;;;;29.63;10.23;;;;;;;-3.15;100.00;100994.16;4951004;59;1141328;-69
2022/01/07 01:16:10;;;;;;;23.73;9.30;;;;;;;-3.15;100.00;100998.47;4975160;59;1143322;-75
2022/01/07 01:21:16;;;;;;;25.47;9.13;;;;;;;-3.23;100.00;100989.11;4962407;59;1141191;-72
2022/01/07 01:26:22;;;;;;;25.52;8.23;;;;;;;-3.11;100.00;101000.16;4961786;59;1141375;-72
2022/01/07 01:31:30;;;;;;;26.40;9.07;;;;;;;-3.09;100.00;100989.34;4963133;59;1141348;-78
2022/01/07 01:36:36;;;;;;;34.58;9.63;;;;;;;-3.08;100.00;100989.33;4963035;59;1140475;-73
2022/01/07 01:41:44;;;;;;;24.13;6.20;;;;;;;-3.11;100.00;100993.69;4972355;59;1141303;-71
2022/01/07 01:46:50;;;;;;;25.37;7.00;;;;;;;-3.13;100.00;100985.09;4972651;59;1141009;-73
2022/01/07 01:51:56;;;;;;;30.13;7.93;;;;;;;-3.17;100.00;100984.70;4973104;59;1140940;-72
2022/01/07 01:57:01;;;;;;;27.03;7.93;;;;;;;-3.19;100.00;100985.58;4949217;59;1141160;-72
2022/01/07 02:02:08;;;;;;;31.83;10.27;;;;;;;-3.17;100.00;100987.28;4961891;59;1141049;-78
2022/01/07 02:07:14;;;;;;;26.23;7.03;;;;;;;-3.15;100.00;100981.22;4948468;59;1143170;-77
2022/01/07 02:12:21;;;;;;;32.30;10.13;;;;;;;-3.13;100.00;100968.27;4884081;59;1141175;-76
2022/01/07 02:17:28;;;;;;;22.53;7.43;;;;;;;-3.13;100.00;100982.50;4902013;58;1143103;-75
2022/01/07 02:22:33;;;;;;;40.47;10.97;;;;;;;-3.16;100.00;100979.51;4972065;59;1141290;-78
2022/01/07 02:27:42;;;;;;;30.43;9.13;;;;;;;-3.15;100.00;100963.11;4971932;59;1143203;-75
2022/01/07 02:32:48;;;;;;;34.73;9.70;;;;;;;-3.14;100.00;100953.19;4895608;59;1141242;-74
2022/01/07 02:37:54;;;;;;;25.23;9.63;;;;;;;-3.12;100.00;100956.61;4835867;59;1139063;-70
2022/01/07 02:43:00;;;;;;;26.17;9.33;;;;;;;-3.10;100.00;100954.86;4972135;58;1139037;-73
2022/01/07 02:48:07;;;;;;;16.17;6.83;;;;;;;-3.05;100.00;100957.35;4972021;58;1139035;-73
2022/01/07 02:53:13;;;;;;;27.37;8.93;;;;;;;-3.03;100.00;100963.36;4914438;59;1139226;-74
2022/01/07 02:58:18;;;;;;;27.00;8.93;;;;;;;-3.04;100.00;100963.80;4838300;60;1139077;-75
2022/01/07 03:03:25;;;;;;;25.73;8.57;;;;;;;-3.02;100.00;100951.70;4971986;59;1139077;-73
2022/01/07 03:08:31;;;;;;;16.00;6.43;;;;;;;-2.95;100.00;100952.04;4974898;58;1138900;-74
2022/01/07 03:13:37;;;;;;;23.80;6.93;;;;;;;-2.86;100.00;100948.44;5045586;58;1138964;-74
2022/01/07 03:18:43;;;;;;;24.70;8.13;;;;;;;-2.77;100.00;100944.87;5037904;58;1139319;-73
2022/01/07 03:23:49;;;;;;;19.65;6.42;;;;;;;-2.71;100.00;100930.51;4959392;58;1139036;-71
2022/01/07 03:28:55;;;;;;;22.73;6.30;;;;;;;-2.64;100.00;100927.80;4959615;58;1138980;-70
2022/01/07 03:34:00;;;;;;;20.67;7.40;;;;;;;-2.63;100.00;100942.46;4959649;58;1138994;-70
2022/01/07 03:39:07;;;;;;;11.00;5.43;;;;;;;-2.62;100.00;100936.41;4959268;58;1139137;-75
2022/01/07 03:44:13;;;;;;;25.43;6.57;;;;;;;-2.57;100.00;100938.89;4958599;58;1139345;-74
2022/01/07 03:49:19;;;;;;;17.43;6.20;;;;;;;-2.57;100.00;100938.45;4958909;58;1139316;-73
2022/01/07 03:54:25;;;;;;;16.47;5.83;;;;;;;-2.63;100.00;100922.19;4959193;58;1139009;-74
2022/01/07 03:59:32;;;;;;;17.53;5.77;;;;;;;-2.63;100.00;100922.19;4959428;58;1139232;-72
2022/01/07 04:04:37;;;;;;;21.30;6.40;;;;;;;-2.58;100.00;100930.70;4959553;58;1139008;-71
2022/01/07 04:09:43;;;;;;;22.05;7.95;;;;;;;-2.58;100.00;100921.64;4938068;58;1136945;-72
2022/01/07 04:14:56;;;;;;;15.67;5.60;;;;;;;-2.58;100.00;100924.23;4881915;59;1137140;-74
2022/01/07 04:19:57;;;;;;;18.23;6.37;;;;;;;-2.58;100.00;100909.55;4895943;59;1141083;-73
2022/01/07 04:25:08;;;;;;;21.57;8.98;;;;;;;-2.55;100.00;100900.45;4932884;59;1141079;-73
2022/01/07 04:30:15;;;;;;;24.47;8.68;;;;;;;-2.56;100.00;100897.44;4913265;60;1141055;-74
2022/01/07 04:35:21;;;;;;;22.27;7.73;;;;;;;-2.53;100.00;100893.95;4910949;59;1141330;-74
2022/01/07 04:40:28;;;;;;;19.07;8.00;;;;;;;-2.51;100.00;100888.30;4811473;60;1141310;-75
2022/01/07 04:45:35;;;;;;;18.07;7.10;;;;;;;-2.51;100.00;100898.66;4726595;61;1141091;-73
2022/01/07 04:50:41;;;;;;;16.07;6.20;;;;;;;-2.52;100.00;100895.22;4726489;61;1141099;-72
2022/01/07 04:55:47;;;;;;;17.77;7.13;;;;;;;-2.49;100.00;100893.02;4734093;61;1141163;-76
2022/01/07 05:00:53;;;;;;;24.50;7.10;;;;;;;-2.51;100.00;100899.95;4734150;62;1141261;-75
2022/01/07 05:06:21;;;;;;;24.30;7.53;;;;;;;-2.51;100.00;100892.19;4736935;61;1141220;-68
2022/01/07 05:11:06;;;;;;;22.80;7.13;;;;;;;-2.51;100.00;100890.45;4767403;61;1141181;-75
2022/01/07 05:16:12;;;;;;;24.70;7.37;;;;;;;-2.51;100.00;100883.98;4974926;59;1141302;-73
2022/01/07 05:21:17;;;;;;;19.50;5.57;;;;;;;-2.50;100.00;100886.98;4985194;59;1141211;-73
2022/01/07 05:26:23;;;;;;;19.20;5.37;;;;;;;-2.53;100.00;100889.62;4985076;59;1141228;-72
2022/01/07 05:31:29;;;;;;;21.03;7.57;;;;;;;-2.51;100.00;100888.30;4985156;59;1141071;-76
2022/01/07 05:36:37;;;;;;;8.73;4.27;;;;;;;-2.51;100.00;100880.09;4974665;59;1141319;-73
2022/01/07 05:41:42;;;;;;;11.13;4.73;;;;;;;-2.44;100.00;100870.94;4985090;59;1139021;-75
2022/01/07 05:46:48;;;;;;;16.37;6.77;;;;;;;-2.44;100.00;100876.11;4985149;59;1141336;-69
2022/01/07 05:51:54;;;;;;;16.87;7.20;;;;;;;-2.45;100.00;100868.78;4983657;59;1141179;-78
2022/01/07 05:57:00;;;;;;;15.27;6.73;;;;;;;-2.44;100.00;100861.87;4961474;59;1141115;-69
2022/01/07 06:02:06;;;;;;;16.53;5.63;;;;;;;-2.40;100.00;100857.02;4953788;59;1141063;-75
2022/01/07 06:07:11;;;;;;;19.10;6.87;;;;;;;-2.34;100.00;100869.86;4958845;59;1141126;-80
2022/01/07 06:12:17;;;;;;;18.57;5.85;;;;;;;-2.31;100.00;100870.67;4931082;59;1141160;-71
2022/01/07 06:17:23;;;;;;;24.43;6.17;;;;;;;-2.28;100.00;100860.66;4892451;60;1141135;-77
2022/01/07 06:22:28;;;;;;;9.63;4.63;;;;;;;-2.23;100.00;100860.14;4897213;58;1141064;-72
2022/01/07 06:27:34;;;;;;;20.50;6.07;;;;;;;-2.22;100.00;100861.41;4886820;58;1139113;-74
2022/01/07 06:32:40;;;;;;;14.40;5.30;;;;;;;-2.18;100.00;100864.80;4880572;60;1141060;-73
2022/01/07 06:37:46;;;;;;;20.27;6.27;;;;;;;-2.15;100.00;100872.52;4880761;60;1141057;-72
2022/01/07 06:42:52;;;;;;;8.80;4.23;;;;;;;-2.12;100.00;100876.31;4913216;58;1141188;-77
2022/01/07 06:47:58;;;;;;;17.53;6.37;;;;;;;-2.10;100.00;100884.06;4936261;58;1139248;-75
2022/01/07 06:53:04;;;;;;;14.57;5.27;;;;;;;-2.07;100.00;100878.38;4920691;59;1140922;-71
2022/01/07 06:58:10;;;;;;;24.57;6.80;;;;;;;-2.05;100.00;100880.50;4936093;59;1141149;-68
2022/01/07 07:03:16;;;;;;;17.60;5.00;;;;;;;-2.02;100.00;100883.04;4892448;59;1141197;-80
2022/01/07 07:08:21;;;;;;;20.07;7.03;;;;;;;-2.02;100.00;100881.75;4923380;58;1141034;-76
2022/01/07 07:13:31;;;;;;;31.00;9.93;;;;;;;-2.00;100.00;100876.09;4939639;58;1141040;-75
2022/01/07 07:18:37;;;;;;;19.83;6.50;;;;;;;-1.99;100.00;100863.55;4968468;58;1141029;-70
2022/01/07 07:23:43;;;;;;;19.00;8.47;;;;;;;-1.99;100.00;100865.28;4918469;58;1141110;-72
2022/01/07 07:28:50;;;;;;;47.13;20.20;;;;;;;-1.96;100.00;100863.90;4911648;58;1141094;-80
2022/01/07 07:34:18;;;;;;;11.97;7.00;;;;;;;-1.98;100.00;100853.56;4906982;59;1141320;-76
2022/01/07 07:39:10;;;;;;;18.00;7.07;;;;;;;-1.97;100.00;100859.16;4930673;58;1139110;-82
2022/01/07 07:44:16;;;;;;;206.87;95.12;;;;;;;-1.98;100.00;100864.37;4948232;59;1139061;-82
2022/01/07 07:49:23;;;;;;;106.83;48.27;;;;;;;-1.99;100.00;100866.58;4901241;59;1143225;-76
2022/01/07 07:54:28;;;;;;;127.83;30.70;;;;;;;-2.01;100.00;100862.72;4945753;58;1142903;-77
2022/01/07 07:59:34;;;;;;;62.05;14.45;;;;;;;-2.04;100.00;100862.78;4932011;59;1143208;-79
2022/01/07 08:04:40;;;;;;;84.43;18.67;;;;;;;-2.04;100.00;100875.73;4929802;59;1141071;-78
2022/01/07 08:09:49;;;;;;;113.13;24.23;;;;;;;-2.02;100.00;100878.30;4928907;58;1141175;-74
2022/01/07 08:20:17;;;;;;;;;;;;;;;-1.97;100.00;100886.38;4910238;58;1143157;-74
2022/01/07 08:25:25;;;;;;;145.23;33.63;;;;;;;-1.91;100.00;100885.41;4980469;58;974158;-81
2022/01/07 08:30:59;;;;;;;108.77;30.40;;;;;;;-1.80;100.00;100878.25;4890473;59;1141086;-74
2022/01/07 08:35:43;;;;;;;65.27;19.20;;;;;;;-1.65;100.00;100879.66;4945873;59;1141226;-79
2022/01/07 08:40:49;;;;;;;91.00;23.30;;;;;;;-1.50;100.00;100878.02;4823945;60;1143145;-74
2022/01/07 08:46:09;;;;;;;48.27;14.90;;;;;;;-1.45;100.00;100871.84;4866287;59;1143111;-70
2022/01/07 08:51:14;;;;;;;29.33;10.70;;;;;;;-1.39;100.00;100874.76;4884295;59;1143313;-79
2022/01/07 08:56:26;;;;;;;38.60;12.07;;;;;;;-1.27;100.00;100874.91;4838462;60;1143253;-78
2022/01/07 09:01:32;;;;;;;27.43;11.43;;;;;;;-1.17;100.00;100872.50;4888521;60;1143276;-77
2022/01/07 09:06:37;;;;;;;31.30;10.20;;;;;;;-1.08;100.00;100858.02;4888593;60;1143286;-74
2022/01/07 09:11:43;;;;;;;23.13;8.40;;;;;;;-0.96;100.00;100849.92;4837681;60;1143218;-81
2022/01/07 09:16:49;;;;;;;30.52;11.22;;;;;;;-0.89;100.00;100846.70;4812743;61;1141587;-69
2022/01/07 09:21:58;;;;;;;35.13;11.03;;;;;;;-0.78;100.00;100839.52;4813303;61;1143396;-82
2022/01/07 09:27:03;;;;;;;27.87;11.33;;;;;;;-0.70;100.00;100832.36;4817153;60;1143301;-74
2022/01/07 09:32:09;;;;;;;27.77;10.20;;;;;;;-0.64;100.00;100832.22;4868386;60;1143415;-77
2022/01/07 09:37:15;;;;;;;22.40;8.80;;;;;;;-0.60;100.00;100834.26;4811739;60;1143425;-83
2022/01/07 09:42:20;;;;;;;22.13;8.93;;;;;;;-0.59;100.00;100818.64;4771651;61;1141197;-88
2022/01/07 09:47:28;;;;;;;25.03;7.07;;;;;;;-0.58;100.00;100811.70;4780325;61;1141245;-84
2022/01/07 09:52:34;;;;;;;24.90;9.23;;;;;;;-0.55;100.00;100801.23;4885563;58;1141064;-79
2022/01/07 09:57:39;;;;;;;27.13;8.00;;;;;;;-0.47;100.00;100797.98;4961197;58;1141070;-76
2022/01/07 10:03:11;;;;;;;32.50;9.27;;;;;;;-0.41;100.00;100806.45;4994754;58;1141290;-79
2022/01/07 10:08:21;;;;;;;23.77;8.67;;;;;;;-0.36;100.00;100803.28;4946196;59;1141092;-73
2022/01/07 10:13:27;;;;;;;18.07;6.67;;;;;;;-0.27;100.00;100796.10;4975395;58;1141066;-73
2022/01/07 10:18:39;;;;;;;17.90;7.17;;;;;;;-0.22;100.00;100796.39;5004574;58;1141269;-74
2022/01/07 10:23:47;;;;;;;25.70;8.53;;;;;;;-0.13;100.00;100775.31;4981986;58;1141044;-81
2022/01/07 10:28:53;;;;;;;32.13;12.17;;;;;;;-0.02;100.00;100767.22;4837524;60;1141196;-82
2022/01/07 10:34:04;;;;;;;19.77;7.58;;;;;;;0.14;100.00;100765.00;4852367;60;1143465;-73
2022/01/07 10:39:10;;;;;;;139.10;31.43;;;;;;;0.28;100.00;100757.61;4914627;59;1138983;-81
2022/01/07 10:44:15;;;;;;;19.73;6.67;;;;;;;0.41;100.00;100753.72;4825918;60;1143418;-79
2022/01/07 10:49:26;;;;;;;27.87;10.40;;;;;;;0.54;100.00;100734.20;4826672;60;1139061;-74
2022/01/07 10:54:39;;;;;;;21.07;8.13;;;;;;;0.64;100.00;100730.38;4878902;59;1140944;-84
2022/01/07 10:59:43;;;;;;;65.43;17.70;;;;;;;0.73;99.94;100740.09;4863491;59;1136898;-74
2022/01/07 11:04:48;;;;;;;30.90;10.80;;;;;;;0.78;100.00;100738.17;4901583;59;1136931;-72
2022/01/07 11:09:58;;;;;;;25.77;7.53;;;;;;;0.86;100.00;100720.55;4892014;59;1139194;-78
2022/01/07 11:15:08;;;;;;;19.23;6.37;;;;;;;0.95;100.00;100715.01;4848621;60;1136949;-68
2022/01/07 11:20:16;;;;;;;34.60;13.47;;;;;;;1.02;100.00;100714.76;4867697;60;1136897;-71
2022/01/07 11:25:21;;;;;;;20.80;8.07;;;;;;;1.10;100.00;100711.02;4902061;59;1138797;-81
2022/01/07 11:30:32;;;;;;;16.77;6.80;;;;;;;1.19;100.00;100696.38;4944485;59;1136996;-79
2022/01/07 11:35:41;;;;;;;12.43;5.40;;;;;;;1.25;100.00;100690.47;4917524;59;1136980;-79
2022/01/07 11:40:48;;;;;;;21.27;6.37;;;;;;;1.33;100.00;100692.36;4977155;59;1137172;-70
2022/01/07 11:45:55;;;;;;;45.57;15.23;;;;;;;1.39;100.00;100681.69;4917565;59;1137045;-76
2022/01/07 11:51:06;;;;;;;26.43;7.60;;;;;;;1.44;100.00;100664.59;5000498;58;1139065;-70
2022/01/07 11:56:26;;;;;;;21.73;8.80;;;;;;;1.71;98.64;100681.78;5009748;58;1136952;-83
2022/01/07 12:01:45;;;;;;;22.87;7.97;;;;;;;2.04;99.58;100681.37;5009911;58;1136910;-75
2022/01/07 12:06:50;;;;;;;24.43;10.57;;;;;;;2.36;96.32;100681.37;5009392;58;1136887;-75
2022/01/07 12:12:03;;;;;;;25.10;7.27;;;;;;;2.60;96.69;100684.25;5105399;57;1139161;-72
2022/01/07 12:17:14;;;;;;;;;;;;;;;2.71;92.58;100689.05;5149108;57;1136946;-83
2022/01/07 12:22:21;;;;;;;14.93;6.47;;;;;;;2.77;91.48;100684.84;5148078;57;972340;-73
2022/01/07 12:27:27;;;;;;;29.50;12.97;;;;;;;2.85;91.18;100675.39;5133916;57;1134967;-78
2022/01/07 12:32:36;;;;;;;25.20;8.13;;;;;;;3.09;89.96;100661.24;5102153;58;1138995;-74
2022/01/07 12:37:42;;;;;;;19.20;5.90;;;;;;;3.30;89.90;100664.67;5101709;58;1136915;-74
2022/01/07 12:42:48;;;;;;;18.63;6.67;;;;;;;3.38;89.69;100649.47;5102128;58;1136996;-80
2022/01/07 12:47:54;;;;;;;25.33;9.77;;;;;;;3.70;90.22;100629.66;5102157;58;1136975;-75
2022/01/07 12:53:06;;;;;;;14.20;6.13;;;;;;;3.98;85.77;100627.88;5096595;58;1137026;-75
2022/01/07 12:58:12;;;;;;;19.40;9.67;;;;;;;4.35;85.15;100615.14;5090611;58;1137028;-71
2022/01/07 13:03:19;;;;;;;32.37;12.30;;;;;;;3.98;84.19;100617.41;5091243;58;1137192;-74
2022/01/07 13:08:25;;;;;;;87.90;48.47;;;;;;;3.74;86.77;100614.22;5089499;58;1138961;-72
2022/01/07 13:13:30;;;;;;;36.60;13.93;;;;;;;3.33;86.20;100613.11;5011589;58;1139112;-75
2022/01/07 13:18:41;;;;;;;38.33;15.17;;;;;;;3.15;84.52;100617.86;5011683;58;1139382;-73
2022/01/07 13:23:53;;;;;;;37.60;15.40;;;;;;;3.49;86.87;100601.47;5011533;58;1139092;-78
2022/01/07 13:29:22;;;;;;;34.37;16.77;;;;;;;4.01;85.92;100602.87;5024110;58;1139155;-74
2022/01/07 13:34:31;;;;;;;24.50;10.23;;;;;;;4.40;84.07;100598.28;5033712;58;1139190;-78
2022/01/07 13:39:50;;;;;;;24.50;11.37;;;;;;;4.68;82.78;100588.53;4990753;58;1139195;-82
2022/01/07 13:45:00;;;;;;;23.23;9.80;;;;;;;4.42;81.78;100596.89;4991456;59;1139062;-78
2022/01/07 13:50:27;;;;;;;39.77;14.67;;;;;;;3.83;82.00;100591.53;4991656;59;1136846;-68
2022/01/07 13:55:31;;;;;;;19.07;8.53;;;;;;;3.33;83.00;100588.73;4991159;59;1136980;-79
2022/01/07 14:00:41;;;;;;;31.20;12.10;;;;;;;2.83;83.93;100583.58;4992192;59;1134845;-77
2022/01/07 14:05:50;;;;;;;26.17;10.37;;;;;;;2.44;84.77;100575.72;5019903;58;1136935;-81
2022/01/07 14:10:55;;;;;;;20.20;8.85;;;;;;;2.15;86.37;100578.72;5033562;58;1137010;-73
2022/01/07 14:16:01;;;;;;;14.00;6.20;;;;;;;1.99;87.25;100580.27;4992168;59;1134885;-72
2022/01/07 14:21:08;;;;;;;38.33;12.70;;;;;;;1.85;87.30;100574.78;4992103;58;1134871;-75
2022/01/07 14:26:17;;;;;;;28.83;11.47;;;;;;;1.74;88.98;100573.46;4990175;58;1137096;-73
2022/01/07 14:31:23;;;;;;;33.80;17.47;;;;;;;1.68;89.21;100568.48;4997799;58;1136925;-81
2022/01/07 14:36:28;;;;;;;17.83;8.27;;;;;;;1.61;89.75;100559.69;5000470;58;1136988;-83
2022/01/07 14:41:34;;;;;;;18.50;7.30;;;;;;;1.55;89.85;100541.67;4997928;58;1135085;-76
2022/01/07 14:46:40;;;;;;;127.13;48.53;;;;;;;1.50;90.10;100539.73;4992124;58;1135061;-77
2022/01/07 14:51:45;;;;;;;39.63;16.57;;;;;;;1.44;90.74;100535.59;4959801;58;1139075;-77
2022/01/07 14:56:54;;;;;;;50.43;19.37;;;;;;;1.40;90.48;100541.38;5022885;58;1136341;-75
2022/01/07 15:01:59;;;;;;;27.98;11.75;;;;;;;1.37;91.08;100537.61;4971660;57;1134812;-84
2022/01/07 15:07:05;;;;;;;38.67;14.57;;;;;;;1.31;90.75;100540.45;4977182;58;1227659;-81
2022/01/07 15:12:11;;;;;;;18.13;8.93;;;;;;;1.23;90.97;100531.22;5001785;57;1139343;-79
2022/01/07 15:17:17;;;;;;;28.97;9.43;;;;;;;1.18;91.14;100538.38;4987712;58;1137095;-74
2022/01/07 15:22:23;;;;;;;27.03;11.73;;;;;;;1.15;91.67;100534.59;4976090;58;1137064;-79
2022/01/07 15:27:28;;;;;;;94.07;31.10;;;;;;;1.11;91.71;100527.80;4953097;58;1138997;-75
2022/01/07 15:32:35;;;;;;;103.53;36.80;;;;;;;1.08;92.27;100536.56;4994422;57;1138921;-75
2022/01/07 15:37:43;;;;;;;51.57;23.40;;;;;;;1.03;92.10;100528.95;4977511;58;1141074;-78
2022/01/07 15:42:48;;;;;;;75.47;32.17;;;;;;;0.99;92.49;100522.16;4949446;59;1139410;-75
2022/01/07 15:47:54;;;;;;;43.95;18.35;;;;;;;0.94;92.82;100518.02;4953862;59;1139215;-77
2022/01/07 15:53:00;;;;;;;31.67;10.63;;;;;;;0.94;93.22;100515.41;4950970;59;1138998;-73
2022/01/07 15:58:06;;;;;;;37.80;13.62;;;;;;;0.91;92.96;100524.22;4959342;59;1138925;-76
2022/01/07 16:03:13;;;;;;;47.83;15.70;;;;;;;0.91;93.24;100515.11;4943070;59;1139310;-72
2022/01/07 16:08:19;;;;;;;37.07;12.50;;;;;;;0.85;93.49;100508.81;4979666;59;1139298;-77
2022/01/07 16:13:25;;;;;;;36.57;13.33;;;;;;;0.85;93.49;100508.81;4971762;59;1139100;-78
2022/01/07 16:18:30;;;;;;;41.37;14.07;;;;;;;0.87;93.42;100510.91;4941685;59;1139028;-72
2022/01/07 16:23:37;;;;;;;27.70;10.98;;;;;;;0.87;93.63;100512.67;4962765;59;1138976;-78
2022/01/07 16:28:43;;;;;;;35.13;13.97;;;;;;;0.85;93.78;100514.02;4937551;59;1138990;-76
2022/01/07 16:33:51;;;;;;;38.80;13.70;;;;;;;0.86;93.85;100514.87;4965080;58;1139040;-73
2022/01/07 16:38:57;;;;;;;107.83;36.00;;;;;;;0.85;94.11;100511.42;4953323;59;1138913;-81
2022/01/07 16:44:03;;;;;;;84.20;29.47;;;;;;;0.87;94.04;100507.45;4945234;59;1141123;-73
2022/01/07 16:49:08;;;;;;;372.30;136.80;;;;;;;0.86;93.64;100496.65;4942436;59;1138489;-72
2022/01/07 16:54:15;;;;;;;127.57;28.90;;;;;;;0.85;93.99;100502.30;4959304;59;1143108;-75
2022/01/07 16:59:21;;;;;;;201.83;54.90;;;;;;;0.83;93.84;100501.52;4935973;59;1141322;-74
2022/01/07 17:04:29;;;;;;;69.60;21.23;;;;;;;0.85;94.33;100504.91;4923187;59;1140952;-74
2022/01/07 17:09:38;;;;;;;100.73;25.23;;;;;;;0.84;93.91;100491.95;4941626;59;1139052;-82
2022/01/07 17:14:44;;;;;;;106.63;33.70;;;;;;;0.85;94.03;100489.29;4940697;59;1141115;-77
2022/01/07 17:19:49;;;;;;;86.17;26.03;;;;;;;0.83;93.98;100488.95;4955875;59;1141063;-73
2022/01/07 17:24:55;;;;;;;65.67;23.80;;;;;;;0.81;94.13;100489.00;4959843;59;1139243;-75
2022/01/07 17:30:01;;;;;;;48.27;18.17;;;;;;;0.79;93.91;100486.06;4949484;59;1139576;-72
2022/01/07 17:35:08;;;;;;;54.37;21.70;;;;;;;0.79;94.11;100486.06;4992992;58;1139024;-78
2022/01/07 17:40:14;;;;;;;43.87;17.67;;;;;;;0.79;94.23;100489.96;4966267;59;1139231;-70
2022/01/07 17:45:20;;;;;;;39.53;13.70;;;;;;;0.79;94.20;100492.11;4984855;58;1139325;-75
2022/01/07 17:50:26;;;;;;;53.10;15.47;;;;;;;0.77;94.24;100491.32;4983249;58;1139295;-73
2022/01/07 17:55:33;;;;;;;61.40;20.87;;;;;;;0.73;94.20;100494.97;4994886;58;1139034;-73
2022/01/07 18:00:38;;;;;;;59.83;17.07;;;;;;;0.73;94.34;100494.12;4851580;59;1139020;-75
2022/01/07 18:05:44;;;;;;;25.87;9.70;;;;;;;0.73;94.59;100498.88;4824005;60;1139028;-75
2022/01/07 18:10:50;;;;;;;46.13;16.63;;;;;;;0.73;94.49;100489.77;4937736;59;1136964;-80
2022/01/07 18:15:57;;;;;;;35.13;12.93;;;;;;;0.74;94.94;100488.86;4875749;59;1139122;-74
2022/01/07 18:21:04;;;;;;;33.83;12.03;;;;;;;0.75;94.92;100488.41;4898666;59;1139031;-73
2022/01/07 18:26:11;;;;;;;26.45;9.65;;;;;;;0.76;94.80;100487.05;4796800;61;1136935;-75
2022/01/07 18:31:17;;;;;;;48.57;15.67;;;;;;;0.75;94.30;100481.45;4951289;59;1134852;-72
2022/01/07 18:36:23;;;;;;;36.45;14.75;;;;;;;0.78;94.96;100471.34;4905115;59;1136973;-75
2022/01/07 18:41:29;;;;;;;25.70;10.03;;;;;;;0.81;95.11;100471.23;4964427;59;1137007;-78
2022/01/07 18:46:35;;;;;;;20.57;8.83;;;;;;;0.81;94.90;100481.64;5036937;58;1136858;-79
2022/01/07 18:51:41;;;;;;;18.50;8.27;;;;;;;0.82;94.66;100472.93;5074859;58;1134937;-76
2022/01/07 18:56:47;;;;;;;27.73;12.17;;;;;;;0.83;94.81;100466.82;5075084;58;1134781;-77
2022/01/07 19:01:53;;;;;;;33.73;11.37;;;;;;;0.84;95.02;100464.61;5055238;58;1136971;-74
2022/01/07 19:06:59;;;;;;;24.70;10.38;;;;;;;0.86;94.72;100462.80;5005860;58;1136943;-75
2022/01/07 19:12:06;;;;;;;27.07;10.50;;;;;;;0.89;95.06;100463.54;5139098;57;1137029;-79
2022/01/07 19:17:11;;;;;;;33.37;12.23;;;;;;;0.90;95.24;100465.23;5059260;58;1136748;-79
2022/01/07 19:22:18;;;;;;;78.07;33.83;;;;;;;0.89;95.60;100468.75;5046185;58;1136955;-76
2022/01/07 19:27:27;;;;;;;31.03;10.00;;;;;;;0.89;96.07;100467.45;5043252;58;1137218;-70
2022/01/07 19:32:33;;;;;;;60.10;20.70;;;;;;;0.90;95.95;100465.69;5045571;58;1136935;-84
2022/01/07 19:37:39;;;;;;;56.60;18.13;;;;;;;0.86;96.96;100465.41;4962136;59;1136967;-73
2022/01/07 19:42:47;;;;;;;47.73;16.50;;;;;;;0.80;99.25;100459.97;4962241;59;1136967;-73
2022/01/07 19:47:57;;;;;;;58.90;18.77;;;;;;;0.73;100.00;100468.09;4968564;59;1134866;-80
2022/01/07 19:53:07;;;;;;;100.07;30.55;;;;;;;0.65;100.00;100469.66;5001546;59;1141029;-72
2022/01/07 19:58:13;;;;;;;77.87;24.23;;;;;;;0.55;100.00;100459.22;5070430;58;1143136;-74
2022/01/07 20:03:19;;;;;;;136.60;41.37;;;;;;;0.49;100.00;100456.38;4977632;59;1141041;-79
2022/01/07 20:08:25;;;;;;;58.73;19.77;;;;;;;0.44;100.00;100460.92;4951857;58;1143125;-71
2022/01/07 20:13:31;;;;;;;69.30;26.15;;;;;;;0.40;100.00;100456.73;4957933;59;1141144;-82
2022/01/07 20:18:37;;;;;;;49.57;19.10;;;;;;;0.38;100.00;100459.84;4954334;59;1141187;-81
2022/01/07 20:23:43;;;;;;;64.83;24.47;;;;;;;0.39;100.00;100454.19;4951485;59;1140395;-72
2022/01/07 20:28:49;;;;;;;70.07;26.83;;;;;;;0.36;100.00;100444.73;4951310;59;1141094;-72
2022/01/07 20:33:56;;;;;;;66.30;24.67;;;;;;;0.33;100.00;100440.94;4930369;59;1141019;-72
2022/01/07 20:39:01;;;;;;;51.50;21.17;;;;;;;0.29;100.00;100437.63;4911899;60;1141130;-72
2022/01/07 20:44:11;;;;;;;42.93;18.50;;;;;;;0.25;100.00;100433.89;4921303;59;1141252;-72
2022/01/07 20:49:16;;;;;;;45.10;20.67;;;;;;;0.25;100.00;100425.62;4928242;58;1141128;-73
2022/01/07 20:54:22;;;;;;;68.83;25.55;;;;;;;0.23;100.00;100429.19;4949048;59;1141433;-72
2022/01/07 20:59:28;;;;;;;51.47;21.23;;;;;;;0.24;100.00;100425.23;4929412;59;1141355;-72
2022/01/07 21:04:34;;;;;;;46.47;18.73;;;;;;;0.24;100.00;100431.73;4941919;58;1140866;-73
2022/01/07 21:09:40;;;;;;;36.93;15.10;;;;;;;0.24;100.00;100428.28;4962248;59;1141181;-72
2022/01/07 21:14:47;;;;;;;41.27;16.50;;;;;;;0.24;100.00;100429.13;4946826;58;1141203;-72
2022/01/07 21:19:53;;;;;;;28.23;13.70;;;;;;;0.21;100.00;100423.19;4931823;59;1141103;-73
2022/01/07 21:24:58;;;;;;;31.20;13.30;;;;;;;0.19;100.00;100415.44;4922970;58;1141185;-73
2022/01/07 21:30:07;;;;;;;30.80;12.97;;;;;;;0.17;100.00;100409.44;4959175;58;1141233;-73
2022/01/07 21:35:14;;;;;;;27.73;12.50;;;;;;;0.15;100.00;100404.78;4972995;58;1141028;-72
2022/01/07 21:40:23;;;;;;;44.17;14.50;;;;;;;0.13;100.00;100407.88;5013847;58;1141151;-73
2022/01/07 21:45:28;;;;;;;49.37;19.33;;;;;;;0.14;100.00;100405.68;4884054;59;1141156;-72
2022/01/07 21:50:36;;;;;;;43.57;17.47;;;;;;;0.14;100.00;100407.43;4839106;60;1141488;-72
2022/01/07 21:55:42;;;;;;;54.73;19.30;;;;;;;0.18;100.00;100406.39;4924456;59;1141821;-73
2022/01/07 22:00:54;;;;;;;69.40;24.50;;;;;;;0.20;100.00;100412.39;4889590;59;1141284;-72
2022/01/07 22:05:55;;;;;;;28.20;13.05;;;;;;;0.18;100.00;100404.64;4870189;60;1141048;-73
2022/01/07 22:11:01;;;;;;;37.50;14.53;;;;;;;0.19;100.00;100406.34;4864558;59;1140986;-73
2022/01/07 22:16:07;;;;;;;34.47;12.97;;;;;;;0.24;100.00;100404.42;4925438;59;1140997;-71
2022/01/07 22:21:13;;;;;;;34.43;14.70;;;;;;;0.21;100.00;100397.19;4885305;59;1141021;-72
2022/01/07 22:26:18;;;;;;;37.90;15.77;;;;;;;0.19;100.00;100396.39;4879282;59;1141119;-71
2022/01/07 22:31:24;;;;;;;45.53;19.83;;;;;;;0.20;100.00;100387.69;4943350;59;1141094;-73
2022/01/07 22:36:29;;;;;;;29.60;11.80;;;;;;;0.20;100.00;100383.33;4836949;59;1141037;-72
2022/01/07 22:41:35;;;;;;;35.23;15.43;;;;;;;0.20;100.00;100383.33;4855067;60;1141043;-72
2022/01/07 22:46:42;;;;;;;38.23;15.23;;;;;;;0.20;100.00;100382.03;4887754;60;1141035;-74
2022/01/07 22:51:48;;;;;;;37.97;14.63;;;;;;;0.21;100.00;100378.53;4911602;60;1141152;-73
2022/01/07 22:56:56;;;;;;;29.90;12.73;;;;;;;0.19;100.00;100379.48;4916202;60;1141334;-73